sensor_id;sensor_type;location;lat;lon;timestamp;pressure;altitude;pressure_sealevel;temperature;humidity
8699;BME280;4386;51.236;6.742;2022-10-19T00:00:11;102409.88;;;12.20;82.98
8699;BME280;4386;51.236;6.742;2022-10-19T00:01:17;102414.34;;;12.20;82.94
8699;BME280;4386;51.236;6.742;2022-10-19T00:02:20;102416.13;;;12.19;82.89
8699;BME280;4386;51.236;6.742;2022-10-19T00:03:23;102413.56;;;12.18;82.81
8699;BME280;4386;51.236;6.742;2022-10-19T00:04:24;102407.38;;;12.17;83.09
8699;BME280;4386;51.236;6.742;2022-10-19T00:05:27;102411.84;;;12.17;82.96
8699;BME280;4386;51.236;6.742;2022-10-19T00:06:30;102412.78;;;12.16;82.82
8699;BME280;4386;51.236;6.742;2022-10-19T00:07:33;102411.00;;;12.16;83.10
8699;BME280;4386;51.236;6.742;2022-10-19T00:08:35;102410.13;;;12.16;82.86
8699;BME280;4386;51.236;6.742;2022-10-19T00:09:38;102406.63;;;12.15;82.95
8699;BME280;4386;51.236;6.742;2022-10-19T00:10:40;102409.28;;;12.15;82.97
8699;BME280;4386;51.236;6.742;2022-10-19T00:11:43;102411.94;;;12.15;82.92
8699;BME280;4386;51.236;6.742;2022-10-19T00:12:47;102414.69;;;12.14;82.92
8699;BME280;4386;51.236;6.742;2022-10-19T00:13:54;102407.66;;;12.13;82.84
8699;BME280;4386;51.236;6.742;2022-10-19T00:14:58;102413.91;;;12.12;82.78
8699;BME280;4386;51.236;6.742;2022-10-19T00:16:00;102407.66;;;12.13;82.93
8699;BME280;4386;51.236;6.742;2022-10-19T00:17:02;102405.94;;;12.12;83.01
8699;BME280;4386;51.236;6.742;2022-10-19T00:18:04;102411.25;;;12.12;82.97
8699;BME280;4386;51.236;6.742;2022-10-19T00:19:10;102398.91;;;12.11;82.77
8699;BME280;4386;51.236;6.742;2022-10-19T00:20:21;102404.22;;;12.11;82.99
8699;BME280;4386;51.236;6.742;2022-10-19T00:21:22;102402.53;;;12.10;82.82
8699;BME280;4386;51.236;6.742;2022-10-19T00:22:25;102398.13;;;12.09;83.23
8699;BME280;4386;51.236;6.742;2022-10-19T00:23:26;102400.91;;;12.07;82.95
8699;BME280;4386;51.236;6.742;2022-10-19T00:24:31;102405.34;;;12.07;83.05
8699;BME280;4386;51.236;6.742;2022-10-19T00:25:33;102399.19;;;12.06;82.87
8699;BME280;4386;51.236;6.742;2022-10-19T00:26:37;102400.22;;;12.04;82.93
8699;BME280;4386;51.236;6.742;2022-10-19T00:27:39;102399.25;;;12.05;83.21
8699;BME280;4386;51.236;6.742;2022-10-19T00:28:41;102398.56;;;12.01;83.11
8699;BME280;4386;51.236;6.742;2022-10-19T00:29:43;102392.44;;;12.00;83.24
8699;BME280;4386;51.236;6.742;2022-10-19T00:30:47;102399.53;;;12.00;82.91
8699;BME280;4386;51.236;6.742;2022-10-19T00:31:54;102393.44;;;11.98;83.23
8699;BME280;4386;51.236;6.742;2022-10-19T00:32:56;102396.19;;;11.96;83.29
8699;BME280;4386;51.236;6.742;2022-10-19T00:33:58;102397.06;;;11.97;83.17
8699;BME280;4386;51.236;6.742;2022-10-19T00:35:01;102390.03;;;11.96;83.36
8699;BME280;4386;51.236;6.742;2022-10-19T00:36:05;102395.34;;;11.96;83.18
8699;BME280;4386;51.236;6.742;2022-10-19T00:37:07;102400.66;;;11.96;83.25
8699;BME280;4386;51.236;6.742;2022-10-19T00:38:09;102400.72;;;11.94;83.29
8699;BME280;4386;51.236;6.742;2022-10-19T00:39:14;102401.69;;;11.93;83.26
8699;BME280;4386;51.236;6.742;2022-10-19T00:40:15;102403.38;;;11.94;83.43
8699;BME280;4386;51.236;6.742;2022-10-19T00:41:20;102396.44;;;11.92;83.23
8699;BME280;4386;51.236;6.742;2022-10-19T00:42:22;102399.97;;;11.92;83.25
8699;BME280;4386;51.236;6.742;2022-10-19T00:43:27;102401.88;;;11.90;83.38
8699;BME280;4386;51.236;6.742;2022-10-19T00:44:57;102397.41;;;11.91;83.46
8699;BME280;4386;51.236;6.742;2022-10-19T00:46:01;102401.88;;;11.90;83.06
8699;BME280;4386;51.236;6.742;2022-10-19T00:47:06;102402.88;;;11.88;83.48
8699;BME280;4386;51.236;6.742;2022-10-19T00:48:10;102397.66;;;11.86;83.20
8699;BME280;4386;51.236;6.742;2022-10-19T00:49:16;102403.03;;;11.85;83.35
8699;BME280;4386;51.236;6.742;2022-10-19T00:50:18;102403.16;;;11.83;83.40
8699;BME280;4386;51.236;6.742;2022-10-19T00:51:21;102398.75;;;11.82;83.54
8699;BME280;4386;51.236;6.742;2022-10-19T00:52:23;102401.41;;;11.82;83.34
8699;BME280;4386;51.236;6.742;2022-10-19T00:53:27;102398.75;;;11.82;83.66
8699;BME280;4386;51.236;6.742;2022-10-19T00:54:31;102397.03;;;11.81;83.51
8699;BME280;4386;51.236;6.742;2022-10-19T00:55:35;102397.03;;;11.81;83.33
8699;BME280;4386;51.236;6.742;2022-10-19T00:56:40;102397.03;;;11.81;83.37
8699;BME280;4386;51.236;6.742;2022-10-19T00:57:43;102398.88;;;11.81;83.63
8699;BME280;4386;51.236;6.742;2022-10-19T00:58:46;102387.44;;;11.79;83.40
8699;BME280;4386;51.236;6.742;2022-10-19T00:59:48;102391.91;;;11.78;83.37
8699;BME280;4386;51.236;6.742;2022-10-19T01:00:51;102391.06;;;11.78;83.38
8699;BME280;4386;51.236;6.742;2022-10-19T01:01:54;102384.91;;;11.77;83.42
8699;BME280;4386;51.236;6.742;2022-10-19T01:02:57;102382.31;;;11.76;83.60
8699;BME280;4386;51.236;6.742;2022-10-19T01:03:59;102388.50;;;11.76;83.28
8699;BME280;4386;51.236;6.742;2022-10-19T01:05:03;102385.84;;;11.76;83.71
8699;BME280;4386;51.236;6.742;2022-10-19T01:06:05;102383.25;;;11.75;83.61
8699;BME280;4386;51.236;6.742;2022-10-19T01:07:08;102387.63;;;11.76;83.71
8699;BME280;4386;51.236;6.742;2022-10-19T01:08:10;102386.00;;;11.73;83.48
8699;BME280;4386;51.236;6.742;2022-10-19T01:09:13;102384.22;;;11.74;83.55
8699;BME280;4386;51.236;6.742;2022-10-19T01:10:15;102395.69;;;11.74;83.53
8699;BME280;4386;51.236;6.742;2022-10-19T01:11:26;102391.31;;;11.73;83.43
8699;BME280;4386;51.236;6.742;2022-10-19T01:14:06;102392.25;;;11.72;83.44
8699;BME280;4386;51.236;6.742;2022-10-19T01:15:21;102379.94;;;11.71;83.71
8699;BME280;4386;51.236;6.742;2022-10-19T01:16:33;102375.56;;;11.70;83.59
8699;BME280;4386;51.236;6.742;2022-10-19T01:17:49;102380.91;;;11.69;83.61
8699;BME280;4386;51.236;6.742;2022-10-19T01:19:00;102381.78;;;11.69;83.55
8699;BME280;4386;51.236;6.742;2022-10-19T01:21:45;102385.34;;;11.68;83.55
8699;BME280;4386;51.236;6.742;2022-10-19T01:23:18;102380.22;;;11.65;83.57
8699;BME280;4386;51.236;6.742;2022-10-19T01:24:42;102387.34;;;11.65;83.71
8699;BME280;4386;51.236;6.742;2022-10-19T01:25:54;102383.91;;;11.63;83.70
8699;BME280;4386;51.236;6.742;2022-10-19T01:27:11;102384.84;;;11.62;83.53
8699;BME280;4386;51.236;6.742;2022-10-19T01:28:31;102388.47;;;11.61;83.79
8699;BME280;4386;51.236;6.742;2022-10-19T01:29:55;102391.19;;;11.59;83.54
8699;BME280;4386;51.236;6.742;2022-10-19T01:31:00;102378.88;;;11.58;83.88
8699;BME280;4386;51.236;6.742;2022-10-19T01:32:08;102382.47;;;11.57;83.85
8699;BME280;4386;51.236;6.742;2022-10-19T01:33:22;102377.22;;;11.56;83.86
8699;BME280;4386;51.236;6.742;2022-10-19T01:34:32;102381.66;;;11.55;83.79
8699;BME280;4386;51.236;6.742;2022-10-19T01:35:40;102381.66;;;11.55;84.16
8699;BME280;4386;51.236;6.742;2022-10-19T01:36:52;102381.66;;;11.55;84.01
8699;BME280;4386;51.236;6.742;2022-10-19T01:38:05;102381.78;;;11.54;83.81
8699;BME280;4386;51.236;6.742;2022-10-19T01:39:11;102384.44;;;11.54;83.99
8699;BME280;4386;51.236;6.742;2022-10-19T01:40:20;102380.91;;;11.53;83.99
8699;BME280;4386;51.236;6.742;2022-10-19T01:41:28;102383.56;;;11.53;83.91
8699;BME280;4386;51.236;6.742;2022-10-19T01:42:36;102380.06;;;11.52;83.94
8699;BME280;4386;51.236;6.742;2022-10-19T01:43:42;102383.66;;;11.52;83.97
8699;BME280;4386;51.236;6.742;2022-10-19T01:44:51;102376.53;;;11.52;84.23
8699;BME280;4386;51.236;6.742;2022-10-19T01:45:58;102376.63;;;11.50;84.33
8699;BME280;4386;51.236;6.742;2022-10-19T01:47:06;102372.19;;;11.51;84.22
8699;BME280;4386;51.236;6.742;2022-10-19T01:48:13;102367.06;;;11.48;84.07
8699;BME280;4386;51.236;6.742;2022-10-19T01:49:19;102372.34;;;11.48;84.24
8699;BME280;4386;51.236;6.742;2022-10-19T01:50:26;102371.56;;;11.46;84.48
8699;BME280;4386;51.236;6.742;2022-10-19T01:51:32;102368.91;;;11.46;84.28
8699;BME280;4386;51.236;6.742;2022-10-19T01:52:38;102366.44;;;11.43;84.55
8699;BME280;4386;51.236;6.742;2022-10-19T01:53:45;102360.19;;;11.44;84.45
8699;BME280;4386;51.236;6.742;2022-10-19T01:54:51;102363.78;;;11.43;84.47
8699;BME280;4386;51.236;6.742;2022-10-19T01:55:54;102357.72;;;11.41;84.27
8699;BME280;4386;51.236;6.742;2022-10-19T01:56:59;102360.38;;;11.41;84.49
8699;BME280;4386;51.236;6.742;2022-10-19T01:58:06;102358.63;;;11.40;84.36
8699;BME280;4386;51.236;6.742;2022-10-19T01:59:10;102350.78;;;11.38;84.48
8699;BME280;4386;51.236;6.742;2022-10-19T02:00:16;102360.59;;;11.36;84.59
8699;BME280;4386;51.236;6.742;2022-10-19T02:01:19;102352.63;;;11.36;84.50
8699;BME280;4386;51.236;6.742;2022-10-19T02:02:25;102353.66;;;11.34;84.49
8699;BME280;4386;51.236;6.742;2022-10-19T02:03:29;102357.25;;;11.33;84.51
8699;BME280;4386;51.236;6.742;2022-10-19T02:04:32;102350.25;;;11.32;84.46
8699;BME280;4386;51.236;6.742;2022-10-19T02:05:37;102353.84;;;11.31;84.40
8699;BME280;4386;51.236;6.742;2022-10-19T02:06:40;102355.69;;;11.29;84.48
8699;BME280;4386;51.236;6.742;2022-10-19T02:07:45;102347.84;;;11.27;84.50
8699;BME280;4386;51.236;6.742;2022-10-19T02:08:50;102361.97;;;11.28;84.77
8699;BME280;4386;51.236;6.742;2022-10-19T02:09:54;102361.00;;;11.29;84.71
8699;BME280;4386;51.236;6.742;2022-10-19T02:10:57;102358.47;;;11.27;84.43
8699;BME280;4386;51.236;6.742;2022-10-19T02:12:02;102357.59;;;11.27;84.63
8699;BME280;4386;51.236;6.742;2022-10-19T02:13:05;102358.53;;;11.26;84.67
8699;BME280;4386;51.236;6.742;2022-10-19T02:14:12;102355.88;;;11.26;84.82
8699;BME280;4386;51.236;6.742;2022-10-19T02:15:18;102358.63;;;11.24;84.61
8699;BME280;4386;51.236;6.742;2022-10-19T02:16:25;102355.19;;;11.22;84.68
8699;BME280;4386;51.236;6.742;2022-10-19T02:17:31;102356.03;;;11.23;84.68
8699;BME280;4386;51.236;6.742;2022-10-19T02:18:40;102358.81;;;11.21;84.56
8699;BME280;4386;51.236;6.742;2022-10-19T02:19:45;102352.63;;;11.21;84.87
8699;BME280;4386;51.236;6.742;2022-10-19T02:20:47;102350.03;;;11.19;84.63
8699;BME280;4386;51.236;6.742;2022-10-19T02:21:50;102348.34;;;11.18;84.91
8699;BME280;4386;51.236;6.742;2022-10-19T02:22:53;102347.50;;;11.18;84.79
8699;BME280;4386;51.236;6.742;2022-10-19T02:23:54;102351.94;;;11.17;84.72
8699;BME280;4386;51.236;6.742;2022-10-19T02:24:57;102351.06;;;11.17;84.71
8699;BME280;4386;51.236;6.742;2022-10-19T02:25:59;102348.41;;;11.17;84.65
8699;BME280;4386;51.236;6.742;2022-10-19T02:27:03;102355.53;;;11.16;84.83
8699;BME280;4386;51.236;6.742;2022-10-19T02:28:05;102351.06;;;11.17;84.63
8699;BME280;4386;51.236;6.742;2022-10-19T02:29:09;102347.56;;;11.16;84.65
8699;BME280;4386;51.236;6.742;2022-10-19T02:30:14;102350.31;;;11.15;84.98
8699;BME280;4386;51.236;6.742;2022-10-19T02:31:19;102349.53;;;11.13;84.72
8699;BME280;4386;51.236;6.742;2022-10-19T02:32:21;102346.03;;;11.12;84.79
8699;BME280;4386;51.236;6.742;2022-10-19T02:33:24;102348.69;;;11.12;84.75
8699;BME280;4386;51.236;6.742;2022-10-19T02:34:27;102348.69;;;11.12;85.02
8699;BME280;4386;51.236;6.742;2022-10-19T02:35:30;102341.66;;;11.11;84.88
8699;BME280;4386;51.236;6.742;2022-10-19T02:36:32;102346.09;;;11.11;84.79
8699;BME280;4386;51.236;6.742;2022-10-19T02:37:35;102340.78;;;11.11;84.81
8699;BME280;4386;51.236;6.742;2022-10-19T02:38:41;102340.78;;;11.11;84.69
8699;BME280;4386;51.236;6.742;2022-10-19T02:39:44;102331.97;;;11.10;84.67
8699;BME280;4386;51.236;6.742;2022-10-19T02:40:49;102333.75;;;11.10;84.92
8699;BME280;4386;51.236;6.742;2022-10-19T02:41:57;102332.06;;;11.09;85.02
8699;BME280;4386;51.236;6.742;2022-10-19T02:43:04;102332.06;;;11.09;84.65
8699;BME280;4386;51.236;6.742;2022-10-19T02:44:14;102328.56;;;11.08;84.87
8699;BME280;4386;51.236;6.742;2022-10-19T02:45:22;102331.22;;;11.08;84.79
8699;BME280;4386;51.236;6.742;2022-10-19T02:46:31;102327.69;;;11.08;84.75
8699;BME280;4386;51.236;6.742;2022-10-19T02:47:41;102312.72;;;11.07;84.88
8699;BME280;4386;51.236;6.742;2022-10-19T02:48:43;102324.28;;;11.06;84.98
8699;BME280;4386;51.236;6.742;2022-10-19T02:49:46;102325.13;;;11.06;84.58
8699;BME280;4386;51.236;6.742;2022-10-19T02:50:50;102330.53;;;11.05;84.58
8699;BME280;4386;51.236;6.742;2022-10-19T02:51:58;102324.34;;;11.04;84.90
8699;BME280;4386;51.236;6.742;2022-10-19T02:53:02;102332.31;;;11.04;84.87
8699;BME280;4386;51.236;6.742;2022-10-19T02:54:05;102324.34;;;11.04;84.71
8699;BME280;4386;51.236;6.742;2022-10-19T02:55:08;102326.16;;;11.04;84.73
8699;BME280;4386;51.236;6.742;2022-10-19T02:56:10;102327.09;;;11.03;84.77
8699;BME280;4386;51.236;6.742;2022-10-19T02:57:15;102324.47;;;11.03;84.88
8699;BME280;4386;51.236;6.742;2022-10-19T02:58:18;102319.16;;;11.03;84.59
8699;BME280;4386;51.236;6.742;2022-10-19T02:59:20;102320.94;;;11.02;84.68
8699;BME280;4386;51.236;6.742;2022-10-19T03:00:22;102320.94;;;11.02;84.77
8699;BME280;4386;51.236;6.742;2022-10-19T03:01:27;102313.84;;;11.03;84.89
8699;BME280;4386;51.236;6.742;2022-10-19T03:02:30;102316.56;;;11.01;84.85
8699;BME280;4386;51.236;6.742;2022-10-19T03:03:33;102319.22;;;11.01;84.70
8699;BME280;4386;51.236;6.742;2022-10-19T03:04:35;102315.69;;;11.01;84.86
8699;BME280;4386;51.236;6.742;2022-10-19T03:05:37;102311.31;;;10.99;84.92
8699;BME280;4386;51.236;6.742;2022-10-19T03:06:39;102313.22;;;10.97;84.78
8699;BME280;4386;51.236;6.742;2022-10-19T03:07:41;102310.56;;;10.97;84.83
8699;BME280;4386;51.236;6.742;2022-10-19T03:08:43;102308.00;;;10.96;84.96
8699;BME280;4386;51.236;6.742;2022-10-19T03:09:46;102308.94;;;10.95;84.74
8699;BME280;4386;51.236;6.742;2022-10-19T03:10:48;102309.81;;;10.95;84.68
8699;BME280;4386;51.236;6.742;2022-10-19T03:11:50;102306.34;;;10.93;84.82
8699;BME280;4386;51.236;6.742;2022-10-19T03:12:52;102312.53;;;10.94;84.92
8699;BME280;4386;51.236;6.742;2022-10-19T03:13:54;102309.97;;;10.92;84.75
8699;BME280;4386;51.236;6.742;2022-10-19T03:14:56;102309.97;;;10.92;85.00
8699;BME280;4386;51.236;6.742;2022-10-19T03:16:05;102315.28;;;10.92;84.75
8699;BME280;4386;51.236;6.742;2022-10-19T03:17:07;102311.75;;;10.92;84.71
8699;BME280;4386;51.236;6.742;2022-10-19T03:18:10;102309.13;;;10.92;84.83
8699;BME280;4386;51.236;6.742;2022-10-19T03:19:12;102318.84;;;10.91;84.82
8699;BME280;4386;51.236;6.742;2022-10-19T03:20:15;102311.84;;;10.90;84.86
8699;BME280;4386;51.236;6.742;2022-10-19T03:21:17;102310.16;;;10.89;84.98
8699;BME280;4386;51.236;6.742;2022-10-19T03:22:20;102315.44;;;10.89;84.88
8699;BME280;4386;51.236;6.742;2022-10-19T03:23:21;102314.59;;;10.89;84.91
8699;BME280;4386;51.236;6.742;2022-10-19T03:24:24;102311.13;;;10.87;85.12
8699;BME280;4386;51.236;6.742;2022-10-19T03:25:25;102317.41;;;10.86;84.72
8699;BME280;4386;51.236;6.742;2022-10-19T03:26:28;102312.16;;;10.84;84.85
8699;BME280;4386;51.236;6.742;2022-10-19T03:27:29;102306.97;;;10.83;84.77
8699;BME280;4386;51.236;6.742;2022-10-19T03:28:33;102320.22;;;10.83;85.02
8699;BME280;4386;51.236;6.742;2022-10-19T03:29:34;102321.16;;;10.82;85.03
8699;BME280;4386;51.236;6.742;2022-10-19T03:30:37;102311.47;;;10.81;84.87
8699;BME280;4386;51.236;6.742;2022-10-19T03:31:38;102313.25;;;10.80;85.00
8699;BME280;4386;51.236;6.742;2022-10-19T03:32:41;102315.16;;;10.78;84.95
8699;BME280;4386;51.236;6.742;2022-10-19T03:33:44;102311.63;;;10.78;84.88
8699;BME280;4386;51.236;6.742;2022-10-19T03:34:47;102311.63;;;10.78;84.96
8699;BME280;4386;51.236;6.742;2022-10-19T03:35:48;102322.25;;;10.78;85.11
8699;BME280;4386;51.236;6.742;2022-10-19T03:36:51;102320.53;;;10.77;85.06
8699;BME280;4386;51.236;6.742;2022-10-19T03:37:53;102317.03;;;10.76;85.20
8699;BME280;4386;51.236;6.742;2022-10-19T03:38:57;102317.09;;;10.75;85.21
8699;BME280;4386;51.236;6.742;2022-10-19T03:40:00;102319.75;;;10.75;85.00
8699;BME280;4386;51.236;6.742;2022-10-19T03:41:04;102319.75;;;10.75;85.03
8699;BME280;4386;51.236;6.742;2022-10-19T03:42:06;102321.47;;;10.76;85.10
8699;BME280;4386;51.236;6.742;2022-10-19T03:43:09;102324.13;;;10.76;85.21
8699;BME280;4386;51.236;6.742;2022-10-19T03:44:11;102314.53;;;10.73;84.96
8699;BME280;4386;51.236;6.742;2022-10-19T03:45:13;102314.53;;;10.73;84.86
8699;BME280;4386;51.236;6.742;2022-10-19T03:46:15;102319.00;;;10.73;85.10
8699;BME280;4386;51.236;6.742;2022-10-19T03:47:18;102326.94;;;10.73;84.97
8699;BME280;4386;51.236;6.742;2022-10-19T03:48:19;102324.38;;;10.71;85.00
8699;BME280;4386;51.236;6.742;2022-10-19T03:49:23;102325.28;;;10.70;85.13
8699;BME280;4386;51.236;6.742;2022-10-19T03:50:25;102327.00;;;10.71;85.04
8699;BME280;4386;51.236;6.742;2022-10-19T03:51:29;102332.41;;;10.70;85.07
8699;BME280;4386;51.236;6.742;2022-10-19T03:52:31;102334.22;;;10.69;85.03
8699;BME280;4386;51.236;6.742;2022-10-19T03:53:34;102328.09;;;10.67;84.98
8699;BME280;4386;51.236;6.742;2022-10-19T03:54:36;102330.75;;;10.67;85.21
8699;BME280;4386;51.236;6.742;2022-10-19T03:55:39;102335.19;;;10.67;84.97
8699;BME280;4386;51.236;6.742;2022-10-19T03:56:41;102343.09;;;10.68;85.16
8699;BME280;4386;51.236;6.742;2022-10-19T03:57:43;102337.78;;;10.68;85.35
8699;BME280;4386;51.236;6.742;2022-10-19T03:58:46;102335.19;;;10.67;85.25
8699;BME280;4386;51.236;6.742;2022-10-19T03:59:49;102341.38;;;10.67;85.36
8699;BME280;4386;51.236;6.742;2022-10-19T04:00:51;102336.06;;;10.67;85.23
8699;BME280;4386;51.236;6.742;2022-10-19T04:01:54;102336.06;;;10.67;85.31
8699;BME280;4386;51.236;6.742;2022-10-19T04:02:55;102341.38;;;10.67;85.20
8699;BME280;4386;51.236;6.742;2022-10-19T04:03:59;102336.06;;;10.67;85.10
8699;BME280;4386;51.236;6.742;2022-10-19T04:05:03;102339.66;;;10.66;85.14
8699;BME280;4386;51.236;6.742;2022-10-19T04:06:08;102334.38;;;10.66;85.11
8699;BME280;4386;51.236;6.742;2022-10-19T04:07:10;102336.16;;;10.66;85.20
8699;BME280;4386;51.236;6.742;2022-10-19T04:08:12;102331.78;;;10.65;85.16
8699;BME280;4386;51.236;6.742;2022-10-19T04:09:16;102335.31;;;10.65;85.20
8699;BME280;4386;51.236;6.742;2022-10-19T04:10:19;102331.88;;;10.63;85.10
8699;BME280;4386;51.236;6.742;2022-10-19T04:11:22;102339.84;;;10.63;85.14
8699;BME280;4386;51.236;6.742;2022-10-19T04:12:25;102329.22;;;10.63;85.26
8699;BME280;4386;51.236;6.742;2022-10-19T04:13:27;102331.94;;;10.62;85.09
8699;BME280;4386;51.236;6.742;2022-10-19T04:14:30;102331.25;;;10.58;85.13
8699;BME280;4386;51.236;6.742;2022-10-19T04:15:46;102329.53;;;10.57;85.29
8699;BME280;4386;51.236;6.742;2022-10-19T04:16:47;102331.41;;;10.55;85.25
8699;BME280;4386;51.236;6.742;2022-10-19T04:17:50;102326.09;;;10.55;85.25
8699;BME280;4386;51.236;6.742;2022-10-19T04:18:52;102332.34;;;10.54;85.39
8699;BME280;4386;51.236;6.742;2022-10-19T04:19:55;102335.84;;;10.55;85.44
8699;BME280;4386;51.236;6.742;2022-10-19T04:21:00;102337.63;;;10.54;85.44
8699;BME280;4386;51.236;6.742;2022-10-19T04:22:02;102335.84;;;10.55;85.39
8699;BME280;4386;51.236;6.742;2022-10-19T04:23:04;102339.44;;;10.54;85.52
8699;BME280;4386;51.236;6.742;2022-10-19T04:24:08;102335.84;;;10.55;85.52
8699;BME280;4386;51.236;6.742;2022-10-19T04:25:10;102333.28;;;10.53;85.45
8699;BME280;4386;51.236;6.742;2022-10-19T04:26:13;102334.13;;;10.54;85.37
8699;BME280;4386;51.236;6.742;2022-10-19T04:27:14;102329.69;;;10.54;85.43
8699;BME280;4386;51.236;6.742;2022-10-19T04:28:17;102342.19;;;10.52;85.38
8699;BME280;4386;51.236;6.742;2022-10-19T04:29:20;102333.34;;;10.52;85.69
8699;BME280;4386;51.236;6.742;2022-10-19T04:30:30;102340.38;;;10.53;85.54
8699;BME280;4386;51.236;6.742;2022-10-19T04:31:33;102341.31;;;10.52;85.48
8699;BME280;4386;51.236;6.742;2022-10-19T04:32:35;102336.00;;;10.52;85.50
8699;BME280;4386;51.236;6.742;2022-10-19T04:33:38;102338.81;;;10.49;85.43
8699;BME280;4386;51.236;6.742;2022-10-19T04:34:40;102337.03;;;10.49;85.73
8699;BME280;4386;51.236;6.742;2022-10-19T04:35:42;102340.63;;;10.48;85.62
8699;BME280;4386;51.236;6.742;2022-10-19T04:36:45;102338.88;;;10.47;85.59
8699;BME280;4386;51.236;6.742;2022-10-19T04:37:48;102342.50;;;10.46;85.58
8699;BME280;4386;51.236;6.742;2022-10-19T04:38:49;102336.34;;;10.45;85.62
8699;BME280;4386;51.236;6.742;2022-10-19T04:39:52;102343.41;;;10.45;85.34
8699;BME280;4386;51.236;6.742;2022-10-19T04:40:54;102342.50;;;10.46;85.79
8699;BME280;4386;51.236;6.742;2022-10-19T04:41:56;102332.81;;;10.45;85.62
8699;BME280;4386;51.236;6.742;2022-10-19T04:42:59;102338.97;;;10.45;85.53
8699;BME280;4386;51.236;6.742;2022-10-19T04:44:01;102335.47;;;10.45;85.63
8699;BME280;4386;51.236;6.742;2022-10-19T04:45:05;102327.53;;;10.45;85.50
8699;BME280;4386;51.236;6.742;2022-10-19T04:46:09;102323.16;;;10.44;85.26
8699;BME280;4386;51.236;6.742;2022-10-19T04:47:13;102330.16;;;10.45;85.68
8699;BME280;4386;51.236;6.742;2022-10-19T04:48:15;102333.75;;;10.44;85.79
8699;BME280;4386;51.236;6.742;2022-10-19T04:49:17;102336.41;;;10.44;85.78
8699;BME280;4386;51.236;6.742;2022-10-19T04:50:20;102333.75;;;10.44;85.60
8699;BME280;4386;51.236;6.742;2022-10-19T04:51:23;102325.91;;;10.42;85.64
8699;BME280;4386;51.236;6.742;2022-10-19T04:52:27;102319.72;;;10.42;85.71
8699;BME280;4386;51.236;6.742;2022-10-19T04:53:28;102330.34;;;10.42;85.51
8699;BME280;4386;51.236;6.742;2022-10-19T04:54:31;102325.03;;;10.42;85.83
8699;BME280;4386;51.236;6.742;2022-10-19T04:55:33;102319.72;;;10.42;85.76
8699;BME280;4386;51.236;6.742;2022-10-19T04:56:35;102319.72;;;10.42;85.83
8699;BME280;4386;51.236;6.742;2022-10-19T04:57:37;102325.03;;;10.42;85.83
8699;BME280;4386;51.236;6.742;2022-10-19T04:58:39;102325.03;;;10.42;85.73
8699;BME280;4386;51.236;6.742;2022-10-19T04:59:41;102322.38;;;10.42;85.81
8699;BME280;4386;51.236;6.742;2022-10-19T05:00:44;102320.66;;;10.41;85.82
8699;BME280;4386;51.236;6.742;2022-10-19T05:01:46;102325.03;;;10.42;85.81
8699;BME280;4386;51.236;6.742;2022-10-19T05:02:48;102323.31;;;10.41;86.08
8699;BME280;4386;51.236;6.742;2022-10-19T05:03:52;102319.78;;;10.40;85.85
8699;BME280;4386;51.236;6.742;2022-10-19T05:05:00;102311.84;;;10.40;85.85
8699;BME280;4386;51.236;6.742;2022-10-19T05:06:02;102310.16;;;10.39;85.99
8699;BME280;4386;51.236;6.742;2022-10-19T05:07:05;102316.31;;;10.40;85.78
8699;BME280;4386;51.236;6.742;2022-10-19T05:08:08;102314.59;;;10.39;86.03
8699;BME280;4386;51.236;6.742;2022-10-19T05:09:12;102309.28;;;10.39;86.02
8699;BME280;4386;51.236;6.742;2022-10-19T05:10:14;102313.66;;;10.40;85.82
8699;BME280;4386;51.236;6.742;2022-10-19T05:11:16;102314.59;;;10.39;86.06
8699;BME280;4386;51.236;6.742;2022-10-19T05:12:19;102313.72;;;10.38;85.82
8699;BME280;4386;51.236;6.742;2022-10-19T05:13:21;102311.19;;;10.37;86.12
8699;BME280;4386;51.236;6.742;2022-10-19T05:14:23;102315.63;;;10.36;85.91
8699;BME280;4386;51.236;6.742;2022-10-19T05:15:26;102321.78;;;10.37;86.02
8699;BME280;4386;51.236;6.742;2022-10-19T05:16:28;102314.75;;;10.36;86.05
8699;BME280;4386;51.236;6.742;2022-10-19T05:17:30;102317.41;;;10.36;86.07
8699;BME280;4386;51.236;6.742;2022-10-19T05:18:33;102311.25;;;10.35;86.03
8699;BME280;4386;51.236;6.742;2022-10-19T05:19:36;102312.16;;;10.34;86.11
8699;BME280;4386;51.236;6.742;2022-10-19T05:20:38;102314.81;;;10.34;86.19
8699;BME280;4386;51.236;6.742;2022-10-19T05:21:40;102310.47;;;10.33;86.16
8699;BME280;4386;51.236;6.742;2022-10-19T05:22:43;102311.34;;;10.34;86.29
8699;BME280;4386;51.236;6.742;2022-10-19T05:23:45;102309.59;;;10.33;86.12
8699;BME280;4386;51.236;6.742;2022-10-19T05:24:48;102310.53;;;10.32;86.43
8699;BME280;4386;51.236;6.742;2022-10-19T05:26:04;102311.41;;;10.32;86.25
8699;BME280;4386;51.236;6.742;2022-10-19T05:27:06;102301.66;;;10.33;86.28
8699;BME280;4386;51.236;6.742;2022-10-19T05:28:09;102306.97;;;10.33;86.09
8699;BME280;4386;51.236;6.742;2022-10-19T05:29:12;102307.88;;;10.32;86.39
8699;BME280;4386;51.236;6.742;2022-10-19T05:30:15;102311.41;;;10.32;86.30
8699;BME280;4386;51.236;6.742;2022-10-19T05:31:18;102308.81;;;10.31;86.35
8699;BME280;4386;51.236;6.742;2022-10-19T05:32:21;102313.19;;;10.32;86.21
8699;BME280;4386;51.236;6.742;2022-10-19T05:33:24;102308.81;;;10.31;86.25
8699;BME280;4386;51.236;6.742;2022-10-19T05:34:25;102311.47;;;10.31;86.26
8699;BME280;4386;51.236;6.742;2022-10-19T05:35:28;102307.88;;;10.32;86.32
8699;BME280;4386;51.236;6.742;2022-10-19T05:36:31;102316.75;;;10.31;86.28
8699;BME280;4386;51.236;6.742;2022-10-19T05:37:35;102310.53;;;10.32;86.26
8699;BME280;4386;51.236;6.742;2022-10-19T05:38:37;102299.94;;;10.32;86.46
8699;BME280;4386;51.236;6.742;2022-10-19T05:39:41;102309.69;;;10.31;86.44
8699;BME280;4386;51.236;6.742;2022-10-19T05:40:44;102303.50;;;10.31;86.44
8699;BME280;4386;51.236;6.742;2022-10-19T05:41:51;102300.03;;;10.30;86.71
8699;BME280;4386;51.236;6.742;2022-10-19T05:42:54;102303.50;;;10.31;86.60
8699;BME280;4386;51.236;6.742;2022-10-19T05:43:58;102289.44;;;10.30;86.68
8699;BME280;4386;51.236;6.742;2022-10-19T05:45:04;102299.06;;;10.31;86.57
8699;BME280;4386;51.236;6.742;2022-10-19T05:46:09;102300.88;;;10.31;86.61
8699;BME280;4386;51.236;6.742;2022-10-19T05:47:11;102303.50;;;10.31;86.86